Terminal Aerodrome Forecast
Issued by NWS

Home | Current Version | Previous Version | Text Only | Print | Product List | Glossary On
Versions: 1 2 3 4 5 6 7 8 9 10 11 12 13 14 15
000
FTUS46 KSGX 241737
TAFONT
TAF
KONT 241737Z 2418/2524 VRB06KT P6SM SCT200
     FM242000 25012KT P6SM SCT150
     FM250400 VRB06KT P6SM FEW200
     FM252000 25012G20KT P6SM FEW200=

USA.gov is the U.S. government's official web portal to all federal, state and local government web resources and services.